Time;durP1;ratioP1;P1;durP2;ratioP2;P2;SDS_P1;SDS_P2;PMS_P1;PMS_P2;Temp;Humidity;BMP_temperature;BMP_pressure;BME280_temperature;BME280_humidity;BME280_pressure;Samples;Min_cycle;Max_cycle;Signal;HPM_P1;HPM_P2
2023/02/25 00:00:29;;;;;;;12.03;2.00;;;;;;;4.27;100.00;98828.41;5033489;28;20445;-71
2023/02/25 00:02:56;;;;;;;6.33;1.27;;;;;;;4.31;100.00;98825.91;5033327;28;20467;-71
2023/02/25 00:05:23;;;;;;;10.83;1.33;;;;;;;4.30;100.00;98825.13;5033484;28;20439;-71
2023/02/25 00:07:50;;;;;;;8.47;1.47;;;;;;;4.32;100.00;98832.84;5033470;28;20457;-72
2023/02/25 00:10:18;;;;;;;7.90;1.17;;;;;;;4.26;100.00;98850.94;5033100;28;20442;-71
2023/02/25 00:12:45;;;;;;;14.80;1.40;;;;;;;4.23;100.00;98875.66;5033242;28;20474;-71
2023/02/25 00:15:12;;;;;;;6.67;0.60;;;;;;;3.38;100.00;98869.06;5033518;28;20443;-70
2023/02/25 00:17:39;;;;;;;6.10;0.80;;;;;;;3.03;100.00;98878.50;5032871;28;21014;-69
2023/02/25 00:20:08;;;;;;;5.10;0.90;;;;;;;2.83;100.00;98878.81;5032891;28;20453;-70
2023/02/25 00:22:35;;;;;;;6.20;0.93;;;;;;;2.59;100.00;98874.38;5033150;28;20545;-70
2023/02/25 00:25:01;;;;;;;7.70;0.70;;;;;;;2.50;100.00;98876.13;5032939;28;20449;-69
2023/02/25 00:27:29;;;;;;;5.07;0.80;;;;;;;2.51;100.00;98870.47;5033149;28;20550;-70
2023/02/25 00:29:56;;;;;;;5.27;0.80;;;;;;;2.50;100.00;98876.13;5037011;28;20865;-68
2023/02/25 00:32:24;;;;;;;15.93;1.60;;;;;;;2.45;100.00;98865.50;5037115;28;20463;-69
2023/02/25 00:34:51;;;;;;;10.23;1.10;;;;;;;2.47;100.00;98861.44;5037294;28;20454;-68
2023/02/25 00:37:18;;;;;;;6.30;1.07;;;;;;;2.41;100.00;98854.59;5037142;28;20574;-68
2023/02/25 00:39:45;;;;;;;4.60;0.80;;;;;;;2.45;100.00;98862.84;5037125;28;20458;-70
2023/02/25 00:42:14;;;;;;;5.03;0.73;;;;;;;2.57;100.00;98855.19;5037073;28;20473;-69
2023/02/25 00:44:43;;;;;;;4.90;0.80;;;;;;;2.55;100.00;98859.22;5037105;28;20455;-70
2023/02/25 00:47:10;;;;;;;4.30;0.60;;;;;;;2.54;100.00;98853.06;5036922;28;20450;-69
2023/02/25 00:49:36;;;;;;;7.57;1.00;;;;;;;2.64;100.00;98855.59;5037265;28;20538;-68
2023/02/25 00:52:04;;;;;;;4.73;0.90;;;;;;;2.69;100.00;98844.81;5036712;28;20544;-69
2023/02/25 00:54:31;;;;;;;6.93;0.90;;;;;;;2.77;100.00;98841.47;5036550;28;20482;-69
2023/02/25 00:56:58;;;;;;;8.53;1.60;;;;;;;2.81;100.00;98846.25;5036622;28;20489;-69
2023/02/25 00:59:24;;;;;;;18.20;0.93;;;;;;;2.82;100.00;98840.59;5036501;28;20908;-68
2023/02/25 01:01:52;;;;;;;5.03;0.90;;;;;;;2.86;100.00;98846.16;5036370;28;20502;-64
2023/02/25 01:04:19;;;;;;;7.33;1.23;;;;;;;2.85;100.00;98844.56;5036329;28;21032;-68
2023/02/25 01:06:45;;;;;;;4.93;0.80;;;;;;;2.92;100.00;98843.13;5036311;28;20438;-69
2023/02/25 01:09:13;;;;;;;5.03;1.13;;;;;;;2.96;100.00;98840.63;5036350;28;20936;-69
2023/02/25 01:11:42;;;;;;;4.70;0.80;;;;;;;3.02;100.00;98834.13;5036265;28;20439;-69
2023/02/25 01:14:11;;;;;;;10.70;1.40;;;;;;;3.05;100.00;98841.53;5036302;28;20842;-69
2023/02/25 01:16:39;;;;;;;5.83;1.10;;;;;;;3.08;100.00;98835.59;5036393;28;20492;-69
2023/02/25 01:19:09;;;;;;;6.73;1.50;;;;;;;3.09;100.00;98844.41;5036371;28;20447;-69
2023/02/25 01:21:39;;;;;;;6.60;1.63;;;;;;;3.07;100.00;98828.69;5036461;28;20431;-69
2023/02/25 01:24:09;;;;;;;5.47;1.13;;;;;;;3.21;100.00;98832.16;5036952;28;20453;-69
2023/02/25 01:26:38;;;;;;;5.63;1.30;;;;;;;3.26;100.00;98836.63;5037047;28;20530;-69
2023/02/25 01:29:06;;;;;;;8.60;1.70;;;;;;;3.36;100.00;98835.63;5036416;28;20979;-69
2023/02/25 01:31:33;;;;;;;9.70;1.93;;;;;;;3.48;100.00;98839.41;5036410;28;20795;-69
2023/02/25 01:34:02;;;;;;;7.30;1.23;;;;;;;3.45;100.00;98847.22;5036319;28;20443;-69
2023/02/25 01:36:32;;;;;;;9.80;1.27;;;;;;;3.45;100.00;98842.69;5036327;28;20540;-69
2023/02/25 01:38:59;;;;;;;15.33;1.90;;;;;;;3.48;100.00;98852.00;5035837;28;20886;-69
2023/02/25 01:41:28;;;;;;;6.30;1.10;;;;;;;3.55;100.00;98839.03;5035191;28;20441;-70
2023/02/25 01:44:07;;;;;;;8.43;1.50;;;;;;;3.57;100.00;98841.41;5036044;28;20439;-68
2023/02/25 01:46:35;;;;;;;9.47;2.03;;;;;;;3.62;100.00;98844.75;5035881;28;20426;-68
2023/02/25 01:49:02;;;;;;;7.50;2.47;;;;;;;3.63;100.00;98838.34;5035808;28;20455;-69
2023/02/25 01:51:31;;;;;;;7.07;2.17;;;;;;;3.58;100.00;98841.09;5035585;28;20447;-67
2023/02/25 01:54:01;;;;;;;8.40;1.80;;;;;;;3.61;100.00;98839.72;5035710;28;20427;-67
2023/02/25 01:56:29;;;;;;;12.77;1.93;;;;;;;3.61;100.00;98840.50;5035628;28;20479;-68
2023/02/25 01:58:57;;;;;;;7.40;1.90;;;;;;;3.65;100.00;98840.72;5035292;28;20478;-68
2023/02/25 02:01:27;;;;;;;6.30;1.77;;;;;;;3.65;100.00;98844.19;5035559;28;20447;-69
2023/02/25 02:03:55;;;;;;;5.33;1.37;;;;;;;3.65;100.00;98862.13;5035402;28;20443;-67
2023/02/25 02:06:27;;;;;;;6.60;1.87;;;;;;;3.63;100.00;98843.69;5035272;28;20441;-68
2023/02/25 02:08:55;;;;;;;8.93;1.90;;;;;;;3.68;100.00;98856.97;5035478;28;20436;-68
2023/02/25 02:11:21;;;;;;;5.30;1.20;;;;;;;3.71;100.00;98842.97;5035071;28;20443;-68
2023/02/25 02:13:53;;;;;;;11.70;1.47;;;;;;;3.68;100.00;98848.94;5034951;28;20989;-68
2023/02/25 02:16:34;;;;;;;6.80;1.33;;;;;;;3.69;100.00;98855.09;5035031;28;20995;-67
2023/02/25 02:19:12;;;;;;;6.67;1.83;;;;;;;3.68;100.00;98845.47;5035280;28;20925;-67
2023/02/25 02:21:50;;;;;;;7.23;1.43;;;;;;;3.64;100.00;98845.28;5035110;28;20957;-68
2023/02/25 02:24:39;;;;;;;5.30;1.27;;;;;;;3.70;100.00;98849.44;5035610;28;20434;-68
2023/02/25 02:27:10;;;;;;;6.00;1.47;;;;;;;3.65;100.00;98854.09;5035200;28;20510;-69
2023/02/25 02:30:15;;;;;;;6.30;1.87;;;;;;;3.69;100.00;98853.19;5035488;28;20423;-69
2023/02/25 02:32:49;;;;;;;4.87;1.03;;;;;;;3.68;100.00;98853.50;4954682;29;20472;-71
2023/02/25 02:35:21;;;;;;;5.60;1.17;;;;;;;3.65;100.00;98852.22;5024166;28;20539;-68
2023/02/25 02:37:57;;;;;;;8.30;1.43;;;;;;;3.65;100.00;98846.06;5035033;28;20466;-69
2023/02/25 02:40:36;;;;;;;4.87;1.10;;;;;;;3.59;100.00;98852.63;5035190;28;20453;-69
2023/02/25 02:43:10;;;;;;;5.07;1.13;;;;;;;3.64;100.00;98850.63;5034814;28;20551;-69
2023/02/25 02:45:45;;;;;;;5.50;1.37;;;;;;;3.64;100.00;98861.34;5034907;28;21000;-68
2023/02/25 02:48:19;;;;;;;5.13;1.37;;;;;;;3.71;100.00;98855.56;5034772;28;20430;-69
2023/02/25 02:50:50;;;;;;;5.10;1.20;;;;;;;3.72;100.00;98859.84;5034303;28;20514;-70
2023/02/25 02:53:21;;;;;;;4.80;1.17;;;;;;;3.61;100.00;98872.63;5034508;28;20510;-70
2023/02/25 02:55:53;;;;;;;6.17;1.60;;;;;;;3.67;100.00;98876.78;5034615;28;20519;-69
2023/02/25 02:58:26;;;;;;;5.63;1.20;;;;;;;3.62;100.00;98874.22;5034174;28;20518;-69
2023/02/25 03:00:58;;;;;;;5.63;1.63;;;;;;;3.58;100.00;98883.91;5034469;28;20434;-69
2023/02/25 03:03:35;;;;;;;5.87;1.60;;;;;;;3.50;100.00;98877.41;5034351;28;20472;-70
2023/02/25 03:06:04;;;;;;;5.77;1.40;;;;;;;3.39;100.00;98886.69;5034497;28;20431;-70
2023/02/25 03:08:34;;;;;;;5.07;1.20;;;;;;;3.45;100.00;98882.03;5034518;28;20484;-69
2023/02/25 03:11:00;;;;;;;5.67;1.30;;;;;;;3.45;100.00;98882.84;5034210;28;20544;-70
2023/02/25 03:13:27;;;;;;;5.30;1.20;;;;;;;3.47;100.00;98886.00;5033810;28;20837;-70
2023/02/25 03:15:54;;;;;;;5.57;1.30;;;;;;;3.54;100.00;98882.94;5033773;28;20546;-70
2023/02/25 03:18:26;;;;;;;4.80;1.00;;;;;;;3.52;100.00;98896.63;5034032;28;20482;-68
2023/02/25 03:20:56;;;;;;;5.73;1.53;;;;;;;3.53;100.00;98898.19;5033903;28;20432;-69
2023/02/25 03:23:28;;;;;;;5.10;1.10;;;;;;;3.51;100.00;98897.72;5033699;28;21003;-68
2023/02/25 03:26:05;;;;;;;4.77;1.07;;;;;;;3.46;100.00;98897.03;5033653;28;20416;-71
2023/02/25 03:28:34;;;;;;;6.70;1.33;;;;;;;3.44;100.00;98901.84;5034068;28;20476;-69
2023/02/25 03:31:06;;;;;;;4.83;1.13;;;;;;;3.45;100.00;98906.13;5034058;28;20439;-71
2023/02/25 03:33:37;;;;;;;4.73;1.00;;;;;;;3.44;100.00;98910.69;5033914;28;20475;-71
2023/02/25 03:36:10;;;;;;;5.87;1.37;;;;;;;3.48;100.00;98914.34;5034126;28;20491;-71
2023/02/25 03:38:39;;;;;;;5.10;1.00;;;;;;;3.49;100.00;98917.81;5033882;28;20922;-72
2023/02/25 03:41:07;;;;;;;5.07;0.97;;;;;;;3.39;100.00;98921.47;5034075;28;20815;-71
2023/02/25 03:43:38;;;;;;;5.90;0.97;;;;;;;3.43;100.00;98929.72;5033638;28;20455;-71
2023/02/25 03:46:06;;;;;;;6.03;1.50;;;;;;;3.31;100.00;98922.16;5034009;28;20437;-70
2023/02/25 03:48:35;;;;;;;4.90;1.00;;;;;;;3.32;100.00;98934.47;5033395;28;20529;-72
2023/02/25 03:51:03;;;;;;;5.87;1.00;;;;;;;3.43;100.00;98933.19;5033656;28;20451;-73
2023/02/25 03:53:31;;;;;;;7.43;1.20;;;;;;;3.41;100.00;98931.88;5033397;28;20562;-72
2023/02/25 03:56:04;;;;;;;4.70;0.87;;;;;;;3.40;100.00;98936.44;5033403;28;20952;-72
2023/02/25 03:58:31;;;;;;;4.53;0.83;;;;;;;3.35;100.00;98949.91;5035127;28;20578;-72
2023/02/25 04:01:01;;;;;;;5.40;1.10;;;;;;;3.30;100.00;98947.31;5033682;28;20485;-72
2023/02/25 04:03:27;;;;;;;4.87;0.80;;;;;;;3.31;100.00;98956.13;5032979;28;20463;-73
2023/02/25 04:05:54;;;;;;;4.93;0.83;;;;;;;3.37;100.00;98954.97;5033630;28;20447;-72
2023/02/25 04:08:21;;;;;;;5.37;1.43;;;;;;;3.40;100.00;98973.09;5033608;28;20440;-71
2023/02/25 04:10:49;;;;;;;4.60;0.80;;;;;;;3.35;100.00;98974.00;5033547;28;20447;-72
2023/02/25 04:13:19;;;;;;;7.17;0.90;;;;;;;3.34;100.00;98974.28;5033468;28;20459;-72
2023/02/25 04:15:47;;;;;;;4.80;0.97;;;;;;;3.32;100.00;98977.28;5033257;28;20424;-72
2023/02/25 04:18:14;;;;;;;6.10;0.80;;;;;;;3.17;100.00;98983.63;5033398;28;20474;-72
2023/02/25 04:20:41;;;;;;;5.43;0.80;;;;;;;3.06;100.00;98984.09;5033464;28;20538;-72
2023/02/25 04:23:07;;;;;;;5.40;1.00;;;;;;;3.04;100.00;98981.72;5033501;28;20595;-73
2023/02/25 04:25:36;;;;;;;4.70;0.90;;;;;;;3.13;100.00;98996.00;5033271;28;20450;-72
2023/02/25 04:28:04;;;;;;;5.40;1.03;;;;;;;3.08;100.00;98988.06;5033220;28;20443;-72
2023/02/25 04:30:30;;;;;;;4.50;0.90;;;;;;;3.05;100.00;98993.97;5033155;28;20474;-72
2023/02/25 04:32:57;;;;;;;4.50;0.67;;;;;;;3.11;100.00;98994.72;5032941;28;20477;-70
2023/02/25 04:35:24;;;;;;;4.90;0.73;;;;;;;3.11;100.00;98998.19;5032894;28;20534;-72
2023/02/25 04:37:50;;;;;;;4.73;1.03;;;;;;;3.12;100.00;99010.47;5032886;28;20574;-72
2023/02/25 04:40:19;;;;;;;4.33;0.67;;;;;;;3.12;100.00;99002.44;5032831;28;20451;-73
2023/02/25 04:42:46;;;;;;;5.03;1.00;;;;;;;3.08;100.00;99004.13;5033194;28;20463;-71
2023/02/25 04:45:15;;;;;;;4.60;0.97;;;;;;;3.11;100.00;99008.88;5033074;28;20451;-70
2023/02/25 04:47:42;;;;;;;4.30;0.70;;;;;;;3.00;100.00;99002.09;5032809;28;20439;-72
2023/02/25 04:50:11;;;;;;;4.90;0.80;;;;;;;2.93;100.00;99009.69;5033201;28;20439;-72
2023/02/25 04:52:38;;;;;;;4.50;0.83;;;;;;;2.97;100.00;99016.84;5032849;28;20485;-71
2023/02/25 04:55:05;;;;;;;6.00;1.10;;;;;;;3.07;100.00;99017.78;5032665;28;20482;-69
2023/02/25 04:57:32;;;;;;;4.60;0.90;;;;;;;3.05;100.00;99010.03;5032832;28;20545;-67
2023/02/25 04:59:58;;;;;;;9.53;1.27;;;;;;;3.08;100.00;99025.50;5032662;28;20526;-68
2023/02/25 05:02:26;;;;;;;5.17;0.80;;;;;;;3.07;100.00;99020.47;5032597;28;21023;-67
2023/02/25 05:04:53;;;;;;;5.43;0.90;;;;;;;3.03;100.00;99015.69;5032489;28;20443;-69
2023/02/25 05:07:19;;;;;;;4.40;0.80;;;;;;;3.03;100.00;99028.25;5032845;28;20447;-68
2023/02/25 05:09:46;;;;;;;5.10;0.90;;;;;;;2.95;100.00;99026.22;5032432;28;20813;-68
2023/02/25 05:12:13;;;;;;;5.33;0.97;;;;;;;2.99;100.00;99027.25;5032782;28;20550;-68
2023/02/25 05:14:40;;;;;;;5.90;1.17;;;;;;;2.91;100.00;99036.72;5032853;28;20494;-68
2023/02/25 05:17:06;;;;;;;5.43;1.20;;;;;;;2.96;100.00;99028.59;5036280;28;20486;-67
2023/02/25 05:19:34;;;;;;;5.63;1.23;;;;;;;2.97;100.00;99035.56;5036313;28;20570;-67
2023/02/25 05:22:01;;;;;;;4.67;0.60;;;;;;;2.96;100.00;99038.50;5036176;28;20495;-67
2023/02/25 05:24:27;;;;;;;4.80;1.07;;;;;;;2.99;100.00;99043.28;5036237;28;20443;-67
2023/02/25 05:26:54;;;;;;;4.60;0.90;;;;;;;3.01;100.00;99036.59;5035873;28;20799;-67
2023/02/25 05:29:20;;;;;;;4.97;1.20;;;;;;;3.02;100.00;99040.84;5036135;28;20525;-67
2023/02/25 05:31:48;;;;;;;6.33;1.23;;;;;;;2.96;100.00;99054.56;5036157;28;20465;-67
2023/02/25 05:34:16;;;;;;;8.20;1.10;;;;;;;2.90;100.00;99053.03;5036205;28;20497;-67
2023/02/25 05:36:45;;;;;;;5.20;1.13;;;;;;;2.92;100.00;99049.00;5036019;28;20454;-67
2023/02/25 05:39:13;;;;;;;5.50;1.13;;;;;;;2.86;100.00;99057.38;5036036;28;20573;-67
2023/02/25 05:41:39;;;;;;;5.60;1.13;;;;;;;2.91;100.00;99055.44;5035914;28;20485;-67
2023/02/25 05:44:06;;;;;;;6.40;1.13;;;;;;;2.87;100.00;99064.31;5035952;28;20486;-67
2023/02/25 05:46:33;;;;;;;5.10;1.00;;;;;;;2.79;100.00;99071.13;5035948;28;20443;-67
2023/02/25 05:48:59;;;;;;;6.20;1.23;;;;;;;2.80;100.00;99079.94;5035826;28;20518;-68
2023/02/25 05:51:26;;;;;;;8.70;1.60;;;;;;;2.79;100.00;99079.13;5035635;28;20824;-68
2023/02/25 05:53:56;;;;;;;5.00;1.20;;;;;;;2.73;100.00;99097.09;5035653;28;20447;-69
2023/02/25 05:56:24;;;;;;;5.20;1.23;;;;;;;2.70;100.00;99084.31;5035383;28;20791;-67
2023/02/25 05:58:51;;;;;;;4.60;0.80;;;;;;;2.64;100.00;99090.00;5035079;28;20483;-67
2023/02/25 06:01:21;;;;;;;4.80;0.73;;;;;;;2.69;100.00;99098.75;5035751;28;20529;-68
2023/02/25 06:03:48;;;;;;;5.03;1.03;;;;;;;2.72;100.00;99106.19;5035865;28;20546;-68
2023/02/25 06:06:21;;;;;;;5.57;1.23;;;;;;;2.50;100.00;99104.03;5035463;28;20866;-67
2023/02/25 06:08:49;;;;;;;4.80;0.80;;;;;;;2.50;100.00;99119.28;5035370;28;20507;-68
2023/02/25 06:11:20;;;;;;;4.60;0.80;;;;;;;2.50;100.00;99122.75;5035348;28;20458;-68
2023/02/25 06:13:48;;;;;;;5.43;0.90;;;;;;;2.46;100.00;99120.94;5035293;28;20549;-68
2023/02/25 06:16:15;;;;;;;4.60;0.70;;;;;;;2.40;100.00;99140.78;5035353;28;20443;-68
2023/02/25 06:18:42;;;;;;;5.47;1.00;;;;;;;2.44;100.00;99141.81;5035398;28;20483;-69
2023/02/25 06:21:11;;;;;;;6.60;1.17;;;;;;;2.35;100.00;99148.84;5035255;28;20466;-70
2023/02/25 06:23:39;;;;;;;4.47;0.80;;;;;;;2.30;100.00;99140.84;5035193;28;20467;-69
2023/02/25 06:26:07;;;;;;;4.50;0.90;;;;;;;2.28;100.00;99149.97;5034668;28;20806;-69
2023/02/25 06:28:36;;;;;;;5.00;1.10;;;;;;;2.30;100.00;99157.69;5034743;28;20441;-69
2023/02/25 06:31:03;;;;;;;5.30;1.07;;;;;;;2.27;100.00;99161.72;5034862;28;20834;-67
2023/02/25 06:33:30;;;;;;;4.80;1.03;;;;;;;2.25;100.00;99153.19;5034623;28;20471;-67
2023/02/25 06:35:57;;;;;;;4.97;0.90;;;;;;;2.18;100.00;99181.31;5035021;28;20447;-64
2023/02/25 06:38:24;;;;;;;5.70;0.93;;;;;;;2.26;100.00;99184.19;5034988;28;20479;-67
2023/02/25 06:40:51;;;;;;;5.70;0.97;;;;;;;2.14;100.00;99186.41;5034716;28;20999;-67
2023/02/25 06:43:17;;;;;;;4.73;0.80;;;;;;;2.13;100.00;99187.50;5034989;28;20485;-64
2023/02/25 06:45:45;;;;;;;8.80;1.40;;;;;;;2.12;100.00;99185.88;5034696;28;20543;-69
2023/02/25 06:48:12;;;;;;;4.63;0.87;;;;;;;2.21;100.00;99197.59;5034405;28;20982;-69
2023/02/25 06:50:39;;;;;;;5.17;1.10;;;;;;;2.25;100.00;99197.78;5034553;28;20490;-68
2023/02/25 06:53:06;;;;;;;5.10;1.10;;;;;;;2.20;100.00;99206.66;5034049;28;21012;-68
2023/02/25 06:55:33;;;;;;;5.07;0.90;;;;;;;2.33;100.00;99218.56;5034299;28;20447;-67
2023/02/25 06:57:59;;;;;;;5.00;0.97;;;;;;;2.35;100.00;99221.78;5034126;28;21023;-68
2023/02/25 07:00:26;;;;;;;6.50;1.47;;;;;;;2.39;100.00;99224.66;5034535;28;20808;-68
2023/02/25 07:02:54;;;;;;;6.60;1.30;;;;;;;2.32;100.00;99221.53;5034023;28;20558;-68
2023/02/25 07:05:21;;;;;;;7.53;1.00;;;;;;;2.40;100.00;99228.94;5034383;28;20450;-68
2023/02/25 07:07:47;;;;;;;8.00;1.30;;;;;;;2.50;100.00;99239.53;5034318;28;20522;-68
2023/02/25 07:10:14;;;;;;;5.00;0.90;;;;;;;2.55;100.00;99236.03;5034420;28;20465;-68
2023/02/25 07:12:40;;;;;;;7.23;0.90;;;;;;;2.51;100.00;99249.94;5034276;28;20479;-68
2023/02/25 07:15:08;;;;;;;6.20;1.10;;;;;;;2.56;100.00;99245.63;5034275;28;20447;-68
2023/02/25 07:17:36;;;;;;;4.70;0.80;;;;;;;2.48;100.00;99253.19;5033757;28;20474;-68
2023/02/25 07:20:04;;;;;;;5.70;1.17;;;;;;;2.47;100.00;99262.25;5034131;28;20447;-69
2023/02/25 07:22:31;;;;;;;5.10;1.20;;;;;;;2.54;100.00;99267.31;5033947;28;20471;-68
2023/02/25 07:24:57;;;;;;;5.00;0.87;;;;;;;2.46;100.00;99270.56;5034030;28;20447;-67
2023/02/25 07:27:24;;;;;;;5.40;1.03;;;;;;;2.37;100.00;99261.56;5033643;28;20454;-67
2023/02/25 07:29:51;;;;;;;4.47;0.90;;;;;;;2.43;100.00;99281.81;5033564;28;20955;-67
2023/02/25 07:32:17;;;;;;;4.63;0.87;;;;;;;2.48;100.00;99281.78;5033440;28;20834;-67
2023/02/25 07:34:44;;;;;;;4.70;0.90;;;;;;;2.41;100.00;99281.31;5033820;28;20466;-68
2023/02/25 07:37:12;;;;;;;4.80;0.97;;;;;;;2.47;100.00;99282.84;5033439;28;20454;-70
2023/02/25 07:39:39;;;;;;;4.90;0.90;;;;;;;2.50;100.00;99295.66;5033273;28;20487;-68
2023/02/25 07:42:05;;;;;;;5.10;0.90;;;;;;;2.50;100.00;99293.78;5033714;28;20469;-66
2023/02/25 07:44:34;;;;;;;5.07;1.03;;;;;;;2.48;100.00;99305.84;5033762;28;20475;-69
2023/02/25 07:47:01;;;;;;;5.17;0.70;;;;;;;2.55;100.00;99300.16;5033754;28;20447;-68
2023/02/25 07:49:27;;;;;;;4.80;1.07;;;;;;;2.55;100.00;99305.50;5033265;28;20439;-70
2023/02/25 07:51:54;;;;;;;6.13;0.87;;;;;;;2.46;100.00;99321.34;5032966;28;20482;-70
2023/02/25 07:54:22;;;;;;;4.63;0.80;;;;;;;2.47;100.00;99321.06;5033606;28;20438;-69
2023/02/25 07:56:50;;;;;;;5.70;0.90;;;;;;;2.40;100.00;99315.25;5033500;28;20534;-70
2023/02/25 07:59:17;;;;;;;5.10;0.80;;;;;;;2.48;100.00;99321.88;5033533;28;20483;-69
2023/02/25 08:01:44;;;;;;;4.50;0.80;;;;;;;2.52;100.00;99328.22;5033698;28;20530;-71
2023/02/25 08:04:11;;;;;;;4.83;0.90;;;;;;;2.49;100.00;99323.47;5034394;28;20453;-70
2023/02/25 08:06:39;;;;;;;4.50;0.80;;;;;;;2.46;100.00;99324.03;5033482;28;20447;-67
2023/02/25 08:09:07;;;;;;;4.90;1.13;;;;;;;2.41;100.00;99322.19;5033220;28;20944;-68
2023/02/25 08:11:35;;;;;;;4.77;0.77;;;;;;;2.40;100.00;99331.28;5032985;28;20453;-71
2023/02/25 08:14:03;;;;;;;4.33;0.60;;;;;;;2.48;100.00;99345.94;5033184;28;20446;-69
2023/02/25 08:16:31;;;;;;;4.93;0.83;;;;;;;2.46;100.00;99335.50;5033364;28;20447;-70
2023/02/25 08:18:58;;;;;;;5.43;1.10;;;;;;;2.43;100.00;99362.78;5033310;28;20586;-68
2023/02/25 08:21:25;;;;;;;4.50;0.70;;;;;;;2.36;100.00;99356.16;5033096;28;20448;-64
2023/02/25 08:23:51;;;;;;;4.90;0.70;;;;;;;2.39;100.00;99356.41;5032807;28;20968;-71
2023/02/25 08:26:19;;;;;;;4.40;0.70;;;;;;;2.36;100.00;99358.84;5033100;28;20554;-70
2023/02/25 08:28:47;;;;;;;4.27;0.60;;;;;;;2.43;100.00;99361.97;5032754;28;20447;-70
2023/02/25 08:31:14;;;;;;;4.30;0.63;;;;;;;2.50;100.00;99359.81;5033188;28;20534;-69
2023/02/25 08:33:43;;;;;;;5.03;0.70;;;;;;;2.56;100.00;99369.38;5033055;28;20521;-70
2023/02/25 08:36:14;;;;;;;4.30;0.67;;;;;;;2.64;100.00;99374.13;5032969;28;20955;-71
2023/02/25 08:38:42;;;;;;;4.20;0.50;;;;;;;2.76;100.00;99377.25;5032897;28;21139;-72
2023/02/25 08:41:09;;;;;;;4.90;0.80;;;;;;;2.78;100.00;99384.97;5032801;28;20530;-71
2023/02/25 08:43:36;;;;;;;4.60;0.70;;;;;;;2.72;100.00;99386.91;5033045;28;20462;-71
2023/02/25 08:46:05;;;;;;;5.33;0.93;;;;;;;2.60;100.00;99389.13;5032713;28;20447;-71
2023/02/25 08:48:31;;;;;;;4.50;0.60;;;;;;;2.49;100.00;99396.41;5033005;28;20453;-71
2023/02/25 08:51:02;;;;;;;4.77;0.77;;;;;;;2.63;100.00;99396.59;5036637;28;20955;-71
2023/02/25 08:53:29;;;;;;;7.17;0.90;;;;;;;2.58;100.00;99398.50;5036428;28;20988;-72
2023/02/25 08:55:56;;;;;;;4.60;0.77;;;;;;;2.38;100.00;99404.75;5036901;28;20542;-71
2023/02/25 08:58:22;;;;;;;4.73;0.57;;;;;;;2.40;100.00;99416.78;5036746;28;20494;-67
2023/02/25 09:00:50;;;;;;;4.30;0.53;;;;;;;2.32;100.00;99417.34;5036714;28;20442;-68
2023/02/25 09:03:18;;;;;;;4.47;0.60;;;;;;;2.32;100.00;99429.91;5036683;28;20568;-70
2023/02/25 09:05:51;;;;;;;4.60;0.80;;;;;;;2.38;100.00;99439.50;5037075;28;20450;-73
2023/02/25 09:08:18;;;;;;;4.47;0.60;;;;;;;2.44;100.00;99441.09;5036643;28;20430;-73
2023/02/25 09:10:45;;;;;;;4.23;0.53;;;;;;;2.50;100.00;99445.31;5036719;28;20443;-74
2023/02/25 09:13:11;;;;;;;4.30;0.60;;;;;;;2.29;100.00;99452.63;5036219;28;20459;-74
2023/02/25 09:15:38;;;;;;;4.50;0.60;;;;;;;1.99;100.00;99449.03;5036213;28;20435;-74
2023/02/25 09:18:05;;;;;;;7.67;0.67;;;;;;;1.73;100.00;99452.84;5036074;28;20449;-74
2023/02/25 09:20:33;;;;;;;4.50;0.80;;;;;;;1.78;100.00;99458.16;5036530;28;20496;-74
2023/02/25 09:23:00;;;;;;;4.43;0.50;;;;;;;1.97;100.00;99450.34;5036303;28;20475;-74
2023/02/25 09:25:28;;;;;;;7.07;0.53;;;;;;;2.03;100.00;99449.25;5036290;28;20534;-74
2023/02/25 09:27:54;;;;;;;4.37;0.70;;;;;;;2.01;100.00;99454.88;5036162;28;20439;-74
2023/02/25 09:30:21;;;;;;;4.20;0.40;;;;;;;2.10;100.00;99473.03;5036500;28;20473;-74
2023/02/25 09:32:48;;;;;;;4.80;0.83;;;;;;;2.13;100.00;99480.50;5036017;28;20465;-74
2023/02/25 09:35:15;;;;;;;4.87;0.90;;;;;;;2.03;100.00;99482.09;5036246;28;20530;-69
2023/02/25 09:37:43;;;;;;;4.47;0.60;;;;;;;2.04;100.00;99485.59;5036359;28;20485;-73
2023/02/25 09:40:21;;;;;;;5.07;1.00;;;;;;;2.20;100.00;99483.66;5036125;28;20575;-73
2023/02/25 09:42:57;;;;;;;4.53;0.50;;;;;;;2.43;100.00;99488.38;5036056;28;20561;-73
2023/02/25 09:45:26;;;;;;;4.40;0.60;;;;;;;2.51;100.00;99489.66;5035927;28;20529;-73
2023/02/25 09:47:57;;;;;;;4.37;0.60;;;;;;;2.64;100.00;99490.94;5035693;28;20478;-73
2023/02/25 09:50:28;;;;;;;4.40;0.50;;;;;;;2.75;100.00;99490.63;5036145;28;20458;-72
2023/02/25 09:53:03;;;;;;;4.40;0.50;;;;;;;2.83;100.00;99499.13;5035566;28;20481;-73
2023/02/25 09:55:33;;;;;;;4.50;0.50;;;;;;;2.89;100.00;99511.41;5036146;28;20522;-73
2023/02/25 09:58:07;;;;;;;6.17;0.87;;;;;;;2.88;100.00;99507.13;5035724;28;20457;-72
2023/02/25 10:00:41;;;;;;;4.47;0.53;;;;;;;2.82;100.00;99510.91;5034407;28;20480;-72
2023/02/25 10:03:20;;;;;;;4.20;0.50;;;;;;;2.77;100.00;99517.88;5035468;28;20558;-73
2023/02/25 10:05:54;;;;;;;4.30;0.50;;;;;;;2.85;100.00;99523.72;5035649;28;20863;-73
2023/02/25 10:08:28;;;;;;;4.70;0.53;;;;;;;2.84;100.00;99527.50;5035714;28;20515;-73
2023/02/25 10:11:02;;;;;;;4.60;0.70;;;;;;;2.72;100.00;99538.50;5035409;28;20813;-73
2023/02/25 10:13:45;;;;;;;4.80;0.70;;;;;;;2.86;100.00;99538.69;5035285;28;20491;-73
2023/02/25 10:16:29;;;;;;;4.50;0.70;;;;;;;2.83;100.00;99547.25;5035717;28;20449;-73
2023/02/25 10:19:08;;;;;;;4.17;0.43;;;;;;;2.97;100.00;99548.28;5035493;28;20474;-73
2023/02/25 10:21:45;;;;;;;4.70;0.60;;;;;;;2.95;100.00;99545.84;5035247;28;20423;-73
2023/02/25 10:24:28;;;;;;;4.20;0.40;;;;;;;3.11;100.00;99549.25;5035247;28;20419;-73
2023/02/25 10:26:59;;;;;;;4.70;0.70;;;;;;;3.18;100.00;99565.78;5034888;28;20909;-74
2023/02/25 10:29:30;;;;;;;4.33;0.70;;;;;;;3.33;100.00;99570.25;5035215;28;20424;-73
2023/02/25 10:31:59;;;;;;;4.20;0.50;;;;;;;3.31;100.00;99574.28;5035092;28;20467;-73
2023/02/25 10:34:29;;;;;;;5.33;0.87;;;;;;;3.32;100.00;99565.97;5035276;28;20452;-73
2023/02/25 10:36:57;;;;;;;4.27;0.53;;;;;;;3.33;100.00;99572.13;5035053;28;20443;-74
2023/02/25 10:39:27;;;;;;;4.27;0.50;;;;;;;3.35;100.00;99580.66;5035004;28;20486;-70
2023/02/25 10:41:54;;;;;;;5.63;0.63;;;;;;;3.45;100.00;99583.28;5034846;28;20475;-73
2023/02/25 10:44:21;;;;;;;4.00;0.40;;;;;;;3.54;100.00;99585.09;5034921;28;20832;-72
2023/02/25 10:46:54;;;;;;;4.30;0.50;;;;;;;3.56;100.00;99584.00;5035090;28;20448;-73
2023/02/25 10:49:24;;;;;;;4.50;0.60;;;;;;;3.54;100.00;99592.31;5034468;28;20434;-73
2023/02/25 10:51:57;;;;;;;5.47;0.60;;;;;;;3.54;100.00;99590.44;5034559;28;20830;-73
2023/02/25 10:54:26;;;;;;;5.30;0.60;;;;;;;3.36;100.00;99593.75;5034940;28;20447;-73
2023/02/25 10:56:54;;;;;;;4.30;0.50;;;;;;;3.23;100.00;99597.88;5034631;28;20450;-73
2023/02/25 10:59:30;;;;;;;4.80;0.70;;;;;;;3.15;100.00;99597.66;5034599;28;20487;-73
2023/02/25 11:01:59;;;;;;;4.17;0.50;;;;;;;3.04;100.00;99610.28;5034621;28;20481;-72
2023/02/25 11:04:32;;;;;;;4.07;0.40;;;;;;;2.90;100.00;99603.94;5034534;28;20446;-73
2023/02/25 11:06:58;;;;;;;4.17;0.40;;;;;;;2.77;100.00;99611.47;5034518;28;20427;-72
2023/02/25 11:09:35;;;;;;;4.30;0.47;;;;;;;2.77;100.00;99613.34;5034578;28;20435;-72
2023/02/25 11:12:11;;;;;;;4.37;0.53;;;;;;;2.78;100.00;99613.06;5034291;28;20462;-72
2023/02/25 11:14:39;;;;;;;4.33;0.50;;;;;;;2.90;100.00;99628.78;5034450;28;20466;-72
2023/02/25 11:17:12;;;;;;;4.20;0.50;;;;;;;2.92;100.00;99620.47;5034155;28;20458;-71
2023/02/25 11:19:41;;;;;;;4.80;0.60;;;;;;;2.98;100.00;99624.75;5033832;28;20474;-72
2023/02/25 11:22:10;;;;;;;4.50;0.50;;;;;;;3.02;100.00;99631.16;5034033;28;20474;-72
2023/02/25 11:24:39;;;;;;;4.00;0.40;;;;;;;2.93;100.00;99622.09;5034169;28;20494;-71
2023/02/25 11:27:20;;;;;;;4.17;0.40;;;;;;;2.94;100.00;99629.84;5033926;28;20852;-73
2023/02/25 11:29:50;;;;;;;4.87;0.50;;;;;;;2.94;100.00;99635.19;5034033;28;20463;-68
2023/02/25 11:32:20;;;;;;;4.10;0.30;;;;;;;2.93;100.00;99638.16;5033607;28;20466;-72
2023/02/25 11:34:50;;;;;;;4.10;0.40;;;;;;;2.97;100.00;99633.88;5033548;28;20937;-73
2023/02/25 11:37:25;;;;;;;4.27;0.57;;;;;;;2.84;100.00;99648.63;5033453;28;20487;-71
2023/02/25 11:39:54;;;;;;;4.20;0.50;;;;;;;2.66;100.00;99658.03;5033541;28;20486;-72
2023/02/25 11:42:24;;;;;;;5.13;0.60;;;;;;;2.53;100.00;99671.97;5033789;28;20467;-72